Time;durP1;ratioP1;P1;durP2;ratioP2;P2;SDS_P1;SDS_P2;PMS_P1;PMS_P2;Temp;Humidity;BMP_temperature;BMP_pressure;BME280_temperature;BME280_humidity;BME280_pressure;Samples;Min_cycle;Max_cycle;Signal;HPM_P1;HPM_P2
2023/05/01 00:00:38;;;;;;;14.30;5.40;;;;;;;8.40;56.29;101110.96;107491;1251;108101;-61
2023/05/01 00:03:16;;;;;;;12.10;5.40;;;;;;;8.39;56.18;101110.67;107514;1251;97828;-62
2023/05/01 00:05:46;;;;;;;12.40;5.70;;;;;;;8.38;56.29;101111.79;107627;1251;97841;-62
2023/05/01 00:08:15;;;;;;;20.70;6.30;;;;;;;8.38;56.16;101116.81;107597;1251;111496;-62
2023/05/01 00:10:44;;;;;;;11.20;5.50;;;;;;;8.39;56.40;101117.48;107559;1251;109100;-62
2023/05/01 00:13:12;;;;;;;13.20;4.70;;;;;;;8.39;56.37;101113.33;107564;1251;108216;-62
2023/05/01 00:15:42;;;;;;;10.30;5.30;;;;;;;8.40;56.81;101115.92;107560;1254;97812;-62
2023/05/01 00:18:10;;;;;;;13.80;6.00;;;;;;;8.41;56.72;101113.94;107569;1253;97838;-61
2023/05/01 00:20:39;;;;;;;12.80;5.10;;;;;;;8.42;56.88;101119.91;107637;1251;112122;-61
2023/05/01 00:23:07;;;;;;;11.90;5.60;;;;;;;8.43;57.03;101123.59;107597;1251;109743;-62
2023/05/01 00:25:36;;;;;;;17.50;5.90;;;;;;;8.45;57.54;101127.38;107586;1251;108259;-62
2023/05/01 00:28:05;;;;;;;10.00;6.10;;;;;;;8.48;59.30;101135.09;107563;1251;98408;-61
2023/05/01 00:30:34;;;;;;;14.10;6.30;;;;;;;8.51;60.60;101138.24;107600;1251;97884;-62
2023/05/01 00:33:02;;;;;;;10.00;5.20;;;;;;;8.58;61.55;101144.00;107564;1251;111404;-61
2023/05/01 00:35:31;;;;;;;13.80;6.30;;;;;;;8.66;61.36;101149.11;107500;1250;110438;-61
2023/05/01 00:37:59;;;;;;;9.70;5.80;;;;;;;8.75;61.53;101152.15;107435;1251;107818;-62
2023/05/01 00:40:27;;;;;;;15.30;6.10;;;;;;;8.80;62.32;101155.02;107512;1254;97884;-61
2023/05/01 00:42:57;;;;;;;14.00;6.50;;;;;;;8.85;63.46;101157.01;107625;1252;97717;-61
2023/05/01 00:45:26;;;;;;;10.90;6.20;;;;;;;8.87;63.43;101158.85;107537;1251;111640;-61
2023/05/01 00:47:54;;;;;;;12.70;6.20;;;;;;;8.89;63.87;101159.75;107691;1251;109405;-63
2023/05/01 00:50:23;;;;;;;11.40;5.80;;;;;;;8.90;64.07;101160.55;107500;1254;108419;-61
2023/05/01 00:52:52;;;;;;;15.80;6.30;;;;;;;8.91;63.91;101165.33;107593;1251;98001;-60
2023/05/01 00:55:21;;;;;;;14.80;5.90;;;;;;;8.91;64.33;101166.03;107631;1251;97943;-61
2023/05/01 00:57:49;;;;;;;11.70;5.80;;;;;;;8.92;64.39;101167.71;107621;1251;112204;-61
2023/05/01 01:00:21;;;;;;;14.90;6.20;;;;;;;8.94;64.90;101166.85;107513;1254;108715;-59
2023/05/01 01:02:50;;;;;;;12.60;6.50;;;;;;;8.98;65.48;101169.08;107634;1251;108244;-61
2023/05/01 01:05:23;;;;;;;18.10;7.90;;;;;;;9.04;65.80;101171.70;107642;1251;97794;-60
2023/05/01 01:08:34;;;;;;;12.30;6.80;;;;;;;9.10;65.14;101171.79;107563;1251;98427;-61
2023/05/01 01:11:15;;;;;;;17.80;6.70;;;;;;;9.17;65.79;101171.73;107565;1251;111953;-62
2023/05/01 01:14:06;;;;;;;16.10;7.30;;;;;;;9.21;65.58;101173.60;107578;1254;110791;-63
2023/05/01 01:16:56;;;;;;;16.50;7.10;;;;;;;9.23;65.78;101175.25;107590;1254;108194;-61
2023/05/01 01:19:40;;;;;;;16.20;6.80;;;;;;;9.24;65.13;101175.34;107626;1251;97825;-61
2023/05/01 01:22:12;;;;;;;14.00;6.70;;;;;;;9.27;66.69;101179.65;107555;1251;98379;-60
2023/05/01 01:24:56;;;;;;;9.10;6.70;;;;;;;9.22;67.60;101185.13;107491;1251;111551;-61
2023/05/01 01:28:02;;;;;;;13.30;6.60;;;;;;;9.17;66.49;101187.89;107572;1251;110184;-60
2023/05/01 01:31:09;;;;;;;11.30;6.20;;;;;;;9.17;66.18;101190.74;107611;1253;107854;-61
2023/05/01 01:33:50;;;;;;;9.90;5.80;;;;;;;9.11;66.01;101192.63;107620;1254;97854;-62
2023/05/01 01:36:29;;;;;;;19.30;6.40;;;;;;;9.04;65.65;101193.13;107685;1251;98358;-61
2023/05/01 01:39:06;;;;;;;15.30;6.10;;;;;;;9.00;65.95;101198.64;107601;1253;110314;-61
2023/05/01 01:41:37;;;;;;;12.80;6.30;;;;;;;8.96;66.61;101198.03;107501;1251;109218;-61
2023/05/01 01:44:16;;;;;;;18.00;8.10;;;;;;;8.94;67.55;101198.92;107500;1251;108424;-61
2023/05/01 01:46:47;;;;;;;8.90;6.70;;;;;;;8.91;67.35;101197.00;107507;1250;97825;-62
2023/05/01 01:49:25;;;;;;;15.40;7.40;;;;;;;8.92;67.06;101202.26;107598;1251;98347;-62
2023/05/01 01:51:55;;;;;;;24.60;8.40;;;;;;;8.93;67.57;101202.52;107598;1251;110915;-61
2023/05/01 01:54:37;;;;;;;15.90;7.60;;;;;;;8.96;68.98;101207.02;107593;1251;109599;-61
2023/05/01 01:57:10;;;;;;;17.80;6.60;;;;;;;8.98;68.70;101209.88;107544;1251;108957;-61
2023/05/01 01:59:43;;;;;;;13.00;7.30;;;;;;;9.00;69.20;101212.20;107491;1257;97782;-65
2023/05/01 02:02:26;;;;;;;18.40;7.10;;;;;;;9.01;69.99;101217.13;107606;1251;97694;-59
2023/05/01 02:04:58;;;;;;;16.10;7.70;;;;;;;9.04;69.39;101221.23;107489;1251;112137;-61
2023/05/01 02:07:28;;;;;;;12.50;7.10;;;;;;;9.07;70.32;101220.49;107502;1251;108696;-63
2023/05/01 02:10:00;;;;;;;12.80;7.10;;;;;;;9.08;70.63;101220.36;107612;1251;108469;-61
2023/05/01 02:12:30;;;;;;;12.80;7.10;;;;;;;9.12;70.49;101219.78;107515;1251;97886;-60
2023/05/01 02:14:59;;;;;;;9.30;7.20;;;;;;;9.14;69.75;101224.46;107600;1250;97893;-62
2023/05/01 02:17:29;;;;;;;17.40;7.10;;;;;;;9.17;69.76;101225.11;107480;1257;111647;-62
2023/05/01 02:19:58;;;;;;;12.10;7.00;;;;;;;9.21;69.58;101229.09;107659;1250;109527;-61
2023/05/01 02:22:28;;;;;;;17.80;7.20;;;;;;;9.24;68.94;101226.70;107539;1251;105540;-61
2023/05/01 02:24:59;;;;;;;15.60;7.10;;;;;;;9.30;68.56;101232.35;107571;1251;97938;-64
2023/05/01 02:27:35;;;;;;;10.80;6.70;;;;;;;9.36;69.11;101233.13;107556;1250;97806;-62
2023/05/01 02:30:05;;;;;;;11.70;6.30;;;;;;;9.40;68.95;101237.48;107484;1250;111846;-62
2023/05/01 02:32:34;;;;;;;15.30;6.40;;;;;;;9.43;68.56;101237.48;107621;1251;109111;-60
2023/05/01 02:35:03;;;;;;;18.90;6.80;;;;;;;9.48;69.00;101240.64;107486;1251;108799;-61
2023/05/01 02:37:32;;;;;;;11.40;6.10;;;;;;;9.52;68.86;101241.81;107466;1250;97695;-60
2023/05/01 02:40:06;;;;;;;13.10;7.00;;;;;;;9.52;68.43;101245.17;107594;1251;98349;-62
2023/05/01 02:42:37;;;;;;;11.70;6.40;;;;;;;9.54;68.55;101248.06;107575;1254;111216;-62
2023/05/01 02:45:07;;;;;;;13.20;5.60;;;;;;;9.59;68.49;101250.07;107516;1257;109841;-61
2023/05/01 02:47:41;;;;;;;9.70;6.00;;;;;;;9.60;68.24;101253.55;107644;1256;107149;-60
2023/05/01 02:50:10;;;;;;;;;;;;;;;9.61;67.87;101254.73;107600;1251;97922;-60
2023/05/01 02:52:39;;;;;;;9.70;5.50;;;;;;;9.63;67.54;101257.60;107589;1254;98379;-62
2023/05/01 02:55:34;;;;;;;10.60;5.40;;;;;;;9.69;67.33;101254.61;107492;1251;112514;-61
2023/05/01 02:58:03;;;;;;;11.50;4.60;;;;;;;9.76;67.05;101263.05;107648;1251;109985;-62
2023/05/01 03:00:31;;;;;;;10.90;4.80;;;;;;;9.83;66.67;101265.02;107538;1251;108017;-62
2023/05/01 03:03:00;;;;;;;11.40;4.10;;;;;;;9.90;66.29;101268.07;107617;1251;97816;-61
2023/05/01 03:05:28;;;;;;;16.00;6.20;;;;;;;9.97;66.11;101271.86;107649;1251;97870;-61
2023/05/01 03:07:58;;;;;;;8.10;4.00;;;;;;;10.02;65.68;101271.06;107562;1251;112375;-61
2023/05/01 03:10:26;;;;;;;6.80;4.40;;;;;;;10.08;65.11;101270.61;107543;1254;110204;-61
2023/05/01 03:12:55;;;;;;;13.00;3.80;;;;;;;10.13;64.85;101272.70;107649;1255;107789;-62
2023/05/01 03:15:23;;;;;;;12.30;4.10;;;;;;;10.19;64.60;101275.36;107571;1251;97809;-62
2023/05/01 03:17:54;;;;;;;6.60;3.70;;;;;;;10.24;64.24;101277.30;107619;1251;97848;-61
2023/05/01 03:20:23;;;;;;;8.20;4.20;;;;;;;10.28;63.88;101281.10;107472;1251;111679;-63
2023/05/01 03:22:53;;;;;;;7.10;3.90;;;;;;;10.31;63.65;101285.11;107650;1251;111196;-61
2023/05/01 03:25:21;;;;;;;7.30;3.90;;;;;;;10.36;63.32;101286.75;107610;1251;107967;-60
2023/05/01 03:27:50;;;;;;;12.00;3.80;;;;;;;10.40;63.00;101294.33;107660;1255;97909;-61
2023/05/01 03:30:22;;;;;;;4.80;3.50;;;;;;;10.42;62.22;101294.19;107673;1250;98404;-61
2023/05/01 03:32:51;;;;;;;5.80;3.80;;;;;;;10.44;62.04;101294.59;107546;1251;112123;-62
2023/05/01 03:35:25;;;;;;;5.80;3.30;;;;;;;10.49;61.66;101301.67;107552;1254;109558;-60
2023/05/01 03:37:55;;;;;;;8.70;3.70;;;;;;;10.53;61.27;101301.17;107527;1251;108545;-61
2023/05/01 03:40:50;;;;;;;10.90;3.50;;;;;;;10.55;60.87;101306.44;107511;1251;97710;-61
2023/05/01 03:43:37;;;;;;;14.40;3.80;;;;;;;10.57;60.75;101310.03;107595;1251;98476;-60
2023/05/01 03:46:10;;;;;;;7.00;3.50;;;;;;;10.57;60.16;101313.92;107645;1251;111923;-60
2023/05/01 03:48:39;;;;;;;9.30;3.40;;;;;;;10.61;59.95;101311.82;107567;1251;109222;-62
2023/05/01 03:51:07;;;;;;;11.80;3.50;;;;;;;10.66;59.88;101314.30;107654;1251;107236;-65
2023/05/01 03:53:36;;;;;;;5.70;3.50;;;;;;;10.72;59.58;101318.34;107602;1251;98629;-60
2023/05/01 03:56:06;;;;;;;5.40;3.00;;;;;;;10.75;59.20;101319.70;107575;1251;98421;-60
2023/05/01 03:58:35;;;;;;;9.80;2.60;;;;;;;10.78;59.05;101321.62;107538;1253;112592;-62
2023/05/01 04:01:04;;;;;;;11.80;3.10;;;;;;;10.83;58.57;101322.14;107587;1254;109962;-62
2023/05/01 04:03:34;;;;;;;7.80;3.40;;;;;;;10.85;58.12;101323.34;107602;1251;107925;-62
2023/05/01 04:06:03;;;;;;;11.00;3.20;;;;;;;10.88;57.90;101325.83;107621;1251;97960;-60
2023/05/01 04:08:32;;;;;;;8.00;3.10;;;;;;;10.90;57.90;101333.02;107585;1253;97835;-63
2023/05/01 04:11:00;;;;;;;5.80;3.20;;;;;;;10.93;57.53;101334.92;107641;1251;112263;-62
2023/05/01 04:13:30;;;;;;;9.10;3.50;;;;;;;10.95;57.17;101339.77;107581;1253;109638;-61
2023/05/01 04:15:59;;;;;;;7.30;3.30;;;;;;;10.98;57.32;101341.52;107572;1251;107561;-61
2023/05/01 04:18:28;;;;;;;5.20;3.30;;;;;;;11.01;56.91;101342.77;107576;1251;97903;-61
2023/05/01 04:20:59;;;;;;;9.20;3.40;;;;;;;11.03;56.52;101347.45;107583;1254;98019;-61
2023/05/01 04:23:27;;;;;;;10.20;2.80;;;;;;;11.07;56.18;101349.80;107499;1251;112269;-60
2023/05/01 04:25:58;;;;;;;8.70;3.00;;;;;;;11.10;56.04;101349.88;107603;1251;109338;-60
2023/05/01 04:28:34;;;;;;;14.20;3.60;;;;;;;11.15;55.71;101352.70;107566;1251;107735;-63
2023/05/01 04:31:04;;;;;;;9.20;3.40;;;;;;;11.16;55.43;101358.55;107596;1254;97802;-62
2023/05/01 04:33:34;;;;;;;5.20;3.10;;;;;;;11.19;55.22;101363.89;107657;1251;98442;-61
2023/05/01 04:36:03;;;;;;;7.50;3.50;;;;;;;11.21;54.99;101368.04;107531;1253;111154;-62
2023/05/01 04:38:31;;;;;;;14.00;3.20;;;;;;;11.25;54.94;101370.23;107528;1251;110162;-61
2023/05/01 04:41:00;;;;;;;7.10;3.80;;;;;;;11.34;54.97;101376.17;107555;1256;108790;-61
2023/05/01 04:43:29;;;;;;;14.30;6.60;;;;;;;11.39;54.78;101376.25;107608;1253;97818;-61
2023/05/01 04:45:58;;;;;;;6.00;3.60;;;;;;;11.46;54.42;101381.98;107654;1251;97724;-59
2023/05/01 04:48:26;;;;;;;10.50;4.00;;;;;;;11.50;53.83;101389.02;107603;1250;113059;-60
2023/05/01 04:50:54;;;;;;;5.70;2.80;;;;;;;11.54;53.95;101393.37;107597;1251;110792;-59
2023/05/01 04:53:24;;;;;;;10.60;3.10;;;;;;;11.64;53.86;101397.22;107602;1256;108015;-62
2023/05/01 04:55:52;;;;;;;8.30;3.80;;;;;;;11.71;53.64;101400.23;107622;1251;98083;-62
2023/05/01 04:58:21;;;;;;;12.90;3.70;;;;;;;11.75;53.50;101405.97;107595;1254;97689;-59
2023/05/01 05:00:51;;;;;;;11.70;3.30;;;;;;;11.73;53.01;101409.89;107555;1251;111700;-62
2023/05/01 05:03:22;;;;;;;5.00;2.90;;;;;;;11.73;52.60;101413.32;107515;1251;110637;-62
2023/05/01 05:05:50;;;;;;;11.70;2.80;;;;;;;11.69;52.61;101417.64;107614;1251;107730;-62
2023/05/01 05:08:20;;;;;;;10.10;2.70;;;;;;;11.72;52.50;101416.10;107654;1252;97818;-60
2023/05/01 05:10:57;;;;;;;5.80;3.10;;;;;;;11.80;52.78;101421.02;107611;1251;97735;-62
2023/05/01 05:13:30;;;;;;;11.20;3.30;;;;;;;11.87;52.73;101423.30;107566;1251;111592;-60
2023/05/01 05:16:01;;;;;;;7.30;3.50;;;;;;;11.95;52.57;101429.52;107582;1256;109671;-61
2023/05/01 05:18:30;;;;;;;11.80;3.30;;;;;;;12.00;52.52;101435.94;107519;1251;108823;-60
2023/05/01 05:21:03;;;;;;;9.80;3.00;;;;;;;12.07;52.42;101439.15;107548;1251;98432;-60
2023/05/01 05:23:31;;;;;;;7.90;3.50;;;;;;;12.08;52.24;101440.67;107621;1251;98356;-61
2023/05/01 05:26:00;;;;;;;5.90;2.90;;;;;;;12.12;52.35;101443.55;107580;1253;111370;-61
2023/05/01 05:28:30;;;;;;;8.20;2.80;;;;;;;12.15;52.18;101444.39;107477;1251;109056;-61
2023/05/01 05:30:58;;;;;;;10.10;3.10;;;;;;;12.15;51.88;101449.76;107478;1251;107784;-62
2023/05/01 05:33:28;;;;;;;13.20;3.10;;;;;;;12.08;51.92;101454.33;107590;1251;97694;-60
2023/05/01 05:35:58;;;;;;;15.40;4.30;;;;;;;12.03;51.92;101459.56;107650;1251;98344;-61
2023/05/01 05:38:30;;;;;;;12.70;3.50;;;;;;;12.02;51.96;101463.08;107590;1251;111875;-60
2023/05/01 05:40:59;;;;;;;7.70;3.50;;;;;;;11.98;52.06;101467.02;107655;1251;109145;-62
2023/05/01 05:43:28;;;;;;;5.80;2.90;;;;;;;11.96;52.16;101471.99;107609;1251;107512;-60
2023/05/01 05:45:58;;;;;;;14.20;3.30;;;;;;;11.95;52.07;101479.10;107564;1251;97794;-60
2023/05/01 05:48:31;;;;;;;6.10;2.80;;;;;;;11.94;51.94;101479.94;107564;1251;98363;-61
2023/05/01 05:51:00;;;;;;;8.00;3.30;;;;;;;11.96;52.11;101488.23;107569;1252;111920;-61
2023/05/01 05:53:29;;;;;;;6.90;3.40;;;;;;;11.99;51.41;101484.92;107625;1251;110036;-61
2023/05/01 05:55:58;;;;;;;8.80;3.00;;;;;;;12.04;50.84;101485.63;107526;1251;107710;-62
2023/05/01 05:58:27;;;;;;;7.20;2.90;;;;;;;12.11;49.83;101488.42;107533;1254;97881;-63
2023/05/01 06:00:55;;;;;;;5.90;2.40;;;;;;;12.14;50.13;101496.31;107490;1250;97872;-63
2023/05/01 06:03:26;;;;;;;5.30;2.90;;;;;;;12.17;50.64;101500.90;107588;1253;111373;-60
2023/05/01 06:05:57;;;;;;;4.80;2.50;;;;;;;12.22;49.89;101496.87;107664;1251;110897;-61
2023/05/01 06:08:26;;;;;;;9.90;2.50;;;;;;;12.27;49.22;101503.29;107635;1251;107088;-61
2023/05/01 06:10:55;;;;;;;12.70;2.30;;;;;;;12.29;49.24;101508.33;107650;1251;97843;-60
2023/05/01 06:13:24;;;;;;;4.60;2.10;;;;;;;12.28;48.70;101511.30;107540;1251;98341;-61
2023/05/01 06:15:52;;;;;;;19.10;3.20;;;;;;;12.28;48.08;101511.81;107600;1254;111133;-60
2023/05/01 06:18:21;;;;;;;8.80;2.40;;;;;;;12.26;48.24;101512.20;107569;1251;109252;-61
2023/05/01 06:20:51;;;;;;;6.20;2.40;;;;;;;12.27;48.71;101506.91;107573;1251;107845;-61
2023/05/01 06:23:20;;;;;;;12.10;2.30;;;;;;;12.28;48.87;101509.14;107649;1251;97805;-61
2023/05/01 06:26:01;;;;;;;3.20;2.00;;;;;;;12.32;49.13;101509.15;107639;1251;97788;-60
2023/05/01 06:28:30;;;;;;;5.90;2.30;;;;;;;12.35;48.84;101511.08;107633;1251;111702;-59
2023/05/01 06:31:00;;;;;;;7.20;2.40;;;;;;;12.38;48.97;101516.91;107626;1254;108555;-60
2023/05/01 06:33:29;;;;;;;7.80;2.40;;;;;;;12.42;48.79;101512.33;107598;1251;108124;-60
2023/05/01 06:36:08;;;;;;;12.00;2.20;;;;;;;12.45;48.40;101516.30;107510;1254;98322;-60
2023/05/01 06:38:37;;;;;;;7.70;2.90;;;;;;;12.51;47.76;101516.00;107620;1253;97769;-60
2023/05/01 06:41:06;;;;;;;6.10;1.90;;;;;;;12.52;47.72;101515.78;107641;1251;111737;-61
2023/05/01 06:43:34;;;;;;;5.40;2.70;;;;;;;12.55;47.70;101524.15;107554;1251;110907;-61
2023/05/01 06:46:03;;;;;;;7.00;2.30;;;;;;;12.58;47.37;101527.82;107600;1251;107381;-61
2023/05/01 06:48:32;;;;;;;12.20;2.10;;;;;;;12.62;47.00;101529.83;107571;1251;97912;-61
2023/05/01 06:51:00;;;;;;;10.30;2.40;;;;;;;12.64;47.13;101527.85;107593;1251;97926;-60
2023/05/01 06:53:29;;;;;;;11.80;2.70;;;;;;;12.70;47.30;101529.00;107554;1251;112328;-62
2023/05/01 06:55:59;;;;;;;6.70;2.20;;;;;;;12.75;46.97;101534.75;107617;1250;109267;-60
2023/05/01 06:58:30;;;;;;;6.60;2.00;;;;;;;12.80;45.68;101530.80;107572;1254;108802;-61
2023/05/01 07:00:58;;;;;;;7.90;1.90;;;;;;;12.91;43.96;101529.73;107586;1251;97835;-60
2023/05/01 07:03:27;;;;;;;5.50;1.90;;;;;;;12.96;44.35;101530.88;107557;1253;98378;-59
2023/05/01 07:05:55;;;;;;;8.20;2.10;;;;;;;13.01;44.42;101533.18;107585;1251;111901;-62
2023/05/01 07:08:26;;;;;;;4.40;1.70;;;;;;;13.07;43.64;101534.32;107622;1256;109126;-61
2023/05/01 07:10:55;;;;;;;2.80;1.50;;;;;;;13.10;43.09;101535.47;107636;1254;108406;-61
2023/05/01 07:13:25;;;;;;;9.70;2.00;;;;;;;13.11;43.15;101533.77;107597;1250;97799;-62
2023/05/01 07:15:53;;;;;;;7.90;1.80;;;;;;;13.14;42.53;101533.83;107588;1251;97697;-60
2023/05/01 07:18:22;;;;;;;6.40;1.90;;;;;;;13.21;42.94;101536.90;107609;1250;111243;-62
2023/05/01 07:20:50;;;;;;;10.50;1.90;;;;;;;13.25;42.34;101543.85;107660;1251;110142;-64
2023/05/01 07:23:19;;;;;;;8.80;1.90;;;;;;;13.32;41.67;101539.50;107595;1251;108238;-61
2023/05/01 07:25:48;;;;;;;11.60;1.40;;;;;;;13.38;42.01;101545.46;107511;1251;97855;-62
2023/05/01 07:28:18;;;;;;;4.20;1.50;;;;;;;13.44;41.63;101540.98;107562;1254;97831;-60
2023/05/01 07:30:46;;;;;;;16.20;3.10;;;;;;;13.53;41.18;101538.20;107588;1251;111697;-60
2023/05/01 07:33:15;;;;;;;19.20;2.50;;;;;;;13.68;41.07;101530.04;107624;1251;109952;-61
2023/05/01 07:35:44;;;;;;;11.80;2.50;;;;;;;13.77;41.54;101541.09;107525;1254;107633;-61
2023/05/01 07:38:15;;;;;;;14.50;1.80;;;;;;;13.89;40.54;101543.30;107547;1251;97859;-61
2023/05/01 07:40:44;;;;;;;9.40;1.90;;;;;;;13.94;40.38;101547.41;107586;1251;97699;-61
2023/05/01 07:43:12;;;;;;;10.20;1.60;;;;;;;13.98;38.88;101543.80;107601;1251;112017;-61
2023/05/01 07:45:41;;;;;;;7.40;2.70;;;;;;;14.01;38.79;101548.89;107624;1254;109022;-62
2023/05/01 07:48:10;;;;;;;6.70;1.50;;;;;;;14.08;38.12;101550.42;107637;1251;108158;-59
2023/05/01 07:50:40;;;;;;;3.70;1.60;;;;;;;14.15;38.43;101550.38;107615;1251;97902;-62
2023/05/01 07:53:08;;;;;;;3.00;1.50;;;;;;;14.22;37.23;101552.81;107598;1251;97723;-60
2023/05/01 07:55:37;;;;;;;6.40;1.40;;;;;;;14.26;36.84;101556.70;107635;1251;111870;-62
2023/05/01 07:58:06;;;;;;;4.80;1.60;;;;;;;14.32;37.06;101550.97;107615;1251;109119;-60
2023/05/01 08:00:35;;;;;;;3.20;1.50;;;;;;;14.35;37.27;101559.48;107334;1256;434090;-64
2023/05/01 08:03:03;;;;;;;2.20;1.50;;;;;;;14.40;37.53;101558.34;107601;1251;97797;-61
2023/05/01 08:05:32;;;;;;;5.70;1.40;;;;;;;14.47;37.36;101559.48;107659;1251;97815;-60
2023/05/01 08:08:00;;;;;;;3.70;2.20;;;;;;;14.56;37.52;101565.02;107623;1251;111746;-61
2023/05/01 08:10:30;;;;;;;9.00;1.90;;;;;;;14.70;37.87;101566.97;107645;1251;108960;-62
2023/05/01 08:12:58;;;;;;;1.50;1.00;;;;;;;14.85;37.71;101569.40;107567;1251;109022;-61
2023/05/01 08:15:27;;;;;;;4.20;2.00;;;;;;;14.97;36.78;101562.26;107593;1253;97844;-61
2023/05/01 08:17:56;;;;;;;4.50;1.50;;;;;;;15.13;36.79;101557.14;107560;1251;98314;-60
2023/05/01 08:20:25;;;;;;;4.50;1.60;;;;;;;15.26;36.52;101564.27;107670;1251;111848;-61
2023/05/01 08:22:53;;;;;;;8.50;1.50;;;;;;;15.38;35.96;101561.42;107589;1254;110284;-61
2023/05/01 08:25:22;;;;;;;7.90;1.40;;;;;;;15.46;35.62;101566.82;107584;1254;108063;-62
2023/05/01 08:27:53;;;;;;;4.70;1.60;;;;;;;15.55;35.72;101563.47;107588;1256;97861;-60
2023/05/01 08:30:21;;;;;;;11.40;1.30;;;;;;;15.68;35.39;101568.02;107644;1251;98482;-61
2023/05/01 08:32:50;;;;;;;8.40;1.60;;;;;;;15.77;35.50;101568.00;107575;1254;110853;-62
2023/05/01 08:35:19;;;;;;;2.90;1.90;;;;;;;15.90;35.75;101567.87;107616;1251;109684;-61
2023/05/01 08:37:51;;;;;;;7.50;1.20;;;;;;;16.02;35.03;101570.83;107455;1251;108465;-62
2023/05/01 08:40:22;;;;;;;7.60;1.20;;;;;;;16.16;33.49;101571.61;107560;1251;97812;-63
2023/05/01 08:42:51;;;;;;;11.20;1.50;;;;;;;16.24;32.94;101574.78;107550;1251;97697;-63
2023/05/01 08:45:24;;;;;;;4.30;1.40;;;;;;;16.35;32.84;101571.77;107635;1253;111371;-61
2023/05/01 08:47:54;;;;;;;2.10;1.10;;;;;;;16.38;33.23;101577.94;107651;1254;109523;-62
2023/05/01 08:50:24;;;;;;;8.20;1.80;;;;;;;16.46;33.07;101576.96;107643;1254;107849;-61
2023/05/01 08:52:53;;;;;;;5.50;2.40;;;;;;;16.52;32.98;101580.11;107614;1251;97797;-59
2023/05/01 08:55:22;;;;;;;5.10;1.80;;;;;;;16.62;32.82;101580.60;107621;1251;97694;-61
2023/05/01 08:57:52;;;;;;;4.60;2.20;;;;;;;16.78;31.99;101579.20;107577;1251;112272;-61
2023/05/01 09:00:20;;;;;;;9.30;1.50;;;;;;;16.94;30.98;101575.92;107616;1250;110171;-62
2023/05/01 09:02:50;;;;;;;4.80;2.20;;;;;;;17.04;31.16;101578.73;107602;1251;107675;-61
2023/05/01 09:05:19;;;;;;;4.30;1.70;;;;;;;17.15;30.48;101565.61;107583;1251;97795;-62
2023/05/01 09:07:48;;;;;;;6.80;1.30;;;;;;;17.25;31.00;101575.44;107611;1251;98425;-61
2023/05/01 09:10:17;;;;;;;8.60;1.90;;;;;;;17.38;30.62;101570.50;107619;1251;112158;-62
2023/05/01 09:12:53;;;;;;;8.50;1.50;;;;;;;17.51;30.61;101572.91;107682;1254;109990;-61
2023/05/01 09:15:24;;;;;;;4.00;1.30;;;;;;;17.69;29.15;101572.69;107612;1255;108039;-62
2023/05/01 09:17:54;;;;;;;5.10;1.50;;;;;;;17.88;29.08;101578.48;107619;1253;97860;-62
2023/05/01 09:20:23;;;;;;;3.10;1.50;;;;;;;18.14;28.41;101577.53;107635;1251;98459;-61
2023/05/01 09:22:51;;;;;;;6.50;1.30;;;;;;;18.38;28.10;101571.13;107601;1251;111164;-65
2023/05/01 09:25:20;;;;;;;6.50;1.40;;;;;;;18.64;28.87;101575.85;107693;1250;108975;-62
2023/05/01 09:27:49;;;;;;;6.60;1.70;;;;;;;19.15;28.31;101579.73;107578;1251;108495;-62
2023/05/01 09:30:37;;;;;;;5.30;1.80;;;;;;;19.62;27.88;101578.20;107603;1254;97957;-63
2023/05/01 09:33:12;;;;;;;6.10;1.30;;;;;;;20.19;27.43;101571.86;107644;1254;97837;-63
2023/05/01 09:35:54;;;;;;;9.20;1.20;;;;;;;20.75;26.54;101573.34;107638;1251;112799;-62
2023/05/01 09:38:26;;;;;;;7.80;1.30;;;;;;;21.14;25.39;101576.52;107623;1250;109222;-64
2023/05/01 09:41:02;;;;;;;5.20;1.80;;;;;;;21.37;25.72;101571.20;107594;1251;107535;-63
2023/05/01 09:43:31;;;;;;;2.70;1.60;;;;;;;21.89;25.21;101570.11;107598;1251;97803;-64
2023/05/01 09:46:05;;;;;;;3.50;1.10;;;;;;;22.32;25.40;101571.77;107610;1254;98342;-62
2023/05/01 09:48:36;;;;;;;5.40;1.10;;;;;;;22.80;24.49;101567.27;107622;1251;111401;-62
2023/05/01 09:51:27;;;;;;;7.20;1.70;;;;;;;23.22;24.31;101567.25;107585;1251;109602;-63
2023/05/01 09:53:58;;;;;;;6.40;1.70;;;;;;;23.53;23.25;101567.23;107599;1251;108412;-62
2023/05/01 09:56:31;;;;;;;12.40;2.30;;;;;;;23.80;23.59;101570.20;107594;1251;97889;-63
2023/05/01 09:59:19;;;;;;;7.40;2.40;;;;;;;24.11;22.89;101563.10;107541;1251;97835;-62
2023/05/01 10:01:48;;;;;;;4.70;2.20;;;;;;;24.42;21.78;101569.73;107566;1251;111960;-63
2023/05/01 10:04:33;;;;;;;3.40;1.90;;;;;;;24.78;21.83;101563.13;107536;1254;109558;-62
2023/05/01 10:07:12;;;;;;;6.90;1.30;;;;;;;25.22;21.20;101568.41;107574;1251;107925;-63
2023/05/01 10:09:41;;;;;;;3.40;1.30;;;;;;;25.52;20.26;101562.11;107513;1254;97812;-62
2023/05/01 10:12:09;;;;;;;5.40;2.20;;;;;;;25.51;20.46;101570.55;107468;1254;97799;-63
2023/05/01 10:14:53;;;;;;;12.30;1.90;;;;;;;25.67;20.30;101568.66;107579;1255;111976;-64
2023/05/01 10:17:37;;;;;;;3.80;1.30;;;;;;;26.04;20.06;101567.64;107633;1256;109125;-62
2023/05/01 10:20:07;;;;;;;3.60;1.60;;;;;;;26.31;20.05;101568.88;107626;1251;108391;-64
2023/05/01 10:22:36;;;;;;;3.20;1.30;;;;;;;26.59;20.03;101566.42;107567;1250;98024;-64
2023/05/01 10:25:10;;;;;;;3.40;1.30;;;;;;;26.94;19.25;101571.25;107645;1251;97831;-64
2023/05/01 10:27:40;;;;;;;11.90;2.10;;;;;;;27.40;18.43;101564.31;107629;1251;112365;-63
2023/05/01 10:30:10;;;;;;;4.60;1.20;;;;;;;27.70;18.71;101568.59;107626;1254;110369;-62
2023/05/01 10:32:41;;;;;;;6.10;0.90;;;;;;;27.87;18.14;101563.78;107621;1251;107643;-62
2023/05/01 10:35:15;;;;;;;6.40;1.40;;;;;;;28.07;18.19;101565.91;107594;1251;97809;-63
2023/05/01 10:37:46;;;;;;;3.50;1.10;;;;;;;28.33;18.46;101572.75;107581;1251;98383;-64
2023/05/01 10:40:44;;;;;;;7.00;1.40;;;;;;;28.31;18.08;101576.68;107659;1251;111454;-63
2023/05/01 10:43:29;;;;;;;10.20;1.00;;;;;;;28.42;18.67;101575.25;107624;1251;108397;-63
2023/05/01 10:46:19;;;;;;;42.70;3.50;;;;;;;28.44;18.26;101570.88;107666;1252;107958;-64
2023/05/01 10:48:48;;;;;;;5.80;1.60;;;;;;;28.58;18.34;101563.70;107627;1253;97913;-63
2023/05/01 10:51:20;;;;;;;9.90;1.40;;;;;;;28.92;17.81;101562.45;107629;1251;97733;-63
2023/05/01 10:54:11;;;;;;;10.90;1.20;;;;;;;29.10;18.53;101559.00;107628;1251;112164;-63
2023/05/01 10:56:42;;;;;;;3.90;1.60;;;;;;;29.58;17.74;101558.35;107555;1251;110155;-63
2023/05/01 10:59:11;;;;;;;5.10;1.30;;;;;;;29.84;17.65;101560.15;107625;1251;107427;-63
2023/05/01 11:01:43;;;;;;;3.50;1.40;;;;;;;29.99;16.91;101558.20;107624;1251;98111;-65
2023/05/01 11:04:18;;;;;;;7.40;2.80;;;;;;;29.81;17.02;101556.92;107567;1251;97730;-67
2023/05/01 11:07:06;;;;;;;19.20;2.00;;;;;;;30.10;17.47;101554.41;107624;1251;111747;-66
2023/05/01 11:09:53;;;;;;;13.10;1.50;;;;;;;30.47;16.53;101548.61;107652;1251;109674;-64
2023/05/01 11:12:47;;;;;;;4.50;1.00;;;;;;;30.58;16.01;101549.45;107562;1254;107310;-63
2023/05/01 11:15:33;;;;;;;5.80;1.20;;;;;;;30.52;16.23;101546.79;107619;1254;97814;-64
2023/05/01 11:18:02;;;;;;;5.80;1.40;;;;;;;30.65;16.35;101545.23;107621;1251;97717;-63
2023/05/01 11:20:37;;;;;;;4.80;1.40;;;;;;;30.81;15.91;101548.48;107604;1256;111697;-63
2023/05/01 11:23:06;;;;;;;1.90;0.90;;;;;;;31.03;15.94;101548.53;107537;1254;110309;-62
2023/05/01 11:25:34;;;;;;;4.10;0.80;;;;;;;31.12;15.56;101546.80;107653;1251;107906;-62
2023/05/01 11:28:05;;;;;;;3.90;1.10;;;;;;;31.29;15.84;101548.70;107586;1251;97698;-64
2023/05/01 11:30:43;;;;;;;4.20;1.20;;;;;;;31.49;15.55;101537.05;107647;1254;97791;-64
2023/05/01 11:33:15;;;;;;;8.20;1.20;;;;;;;31.66;15.30;101537.00;107540;1251;111138;-62